Time;durP1;ratioP1;P1;durP2;ratioP2;P2;SDS_P1;SDS_P2;PMS_P1;PMS_P2;Temp;Humidity;BMP_temperature;BMP_pressure;BME280_temperature;BME280_humidity;BME280_pressure;Samples;Min_cycle;Max_cycle;Signal;HPM_P1;HPM_P2
2022/09/01 00:00:50;;;;;;;10.48;7.45;;;;;;;24.58;100.00;100833.97;4995611;28;20451;-75
2022/09/01 00:03:36;;;;;;;13.20;7.40;;;;;;;24.67;100.00;100829.78;4996168;28;20022;-75
2022/09/01 00:06:23;;;;;;;12.32;7.72;;;;;;;24.28;100.00;100829.97;4998611;28;20104;-75
2022/09/01 00:09:12;;;;;;;11.63;7.30;;;;;;;24.47;100.00;100830.38;4997669;28;20107;-75
2022/09/01 00:11:58;;;;;;;13.82;7.32;;;;;;;24.58;100.00;100830.41;4999999;28;20023;-75
2022/09/01 00:14:44;;;;;;;12.05;8.02;;;;;;;24.09;100.00;100835.81;4996266;28;20038;-76
2022/09/01 00:17:30;;;;;;;9.77;7.20;;;;;;;23.81;100.00;100835.13;4980946;28;20030;-74
2022/09/01 00:20:15;;;;;;;11.60;7.82;;;;;;;23.90;100.00;100838.03;4981491;28;20025;-75
2022/09/01 00:23:01;;;;;;;12.40;6.93;;;;;;;24.07;100.00;100834.19;4981224;28;20027;-75
2022/09/01 00:25:47;;;;;;;12.85;7.40;;;;;;;24.11;100.00;100833.84;4994961;28;20026;-76
2022/09/01 00:28:34;;;;;;;9.02;7.07;;;;;;;23.95;100.00;100838.56;4994783;28;20022;-76
2022/09/01 00:31:21;;;;;;;12.38;7.10;;;;;;;23.87;100.00;100838.22;4996472;28;20058;-76
2022/09/01 00:34:07;;;;;;;12.32;7.30;;;;;;;23.97;100.00;100827.78;4984402;28;20355;-76
2022/09/01 00:36:53;;;;;;;9.02;7.25;;;;;;;23.72;100.00;100828.63;4984468;28;20027;-76
2022/09/01 00:39:39;;;;;;;8.48;6.82;;;;;;;23.74;100.00;100815.13;4984246;28;20042;-77
2022/09/01 00:42:24;;;;;;;9.23;7.03;;;;;;;23.88;100.00;100817.69;4998088;28;20105;-76
2022/09/01 00:45:10;;;;;;;9.88;7.45;;;;;;;23.82;100.00;100813.63;4983818;28;20081;-76
2022/09/01 00:47:56;;;;;;;11.88;7.30;;;;;;;24.04;100.00;100813.00;4997819;28;20462;-76
2022/09/01 00:50:42;;;;;;;11.65;7.35;;;;;;;24.35;100.00;100812.50;4984059;28;20371;-75
2022/09/01 00:53:28;;;;;;;10.20;7.20;;;;;;;23.73;100.00;100822.28;4984110;28;20030;-76
2022/09/01 00:56:15;;;;;;;10.73;6.90;;;;;;;24.02;100.00;100821.13;4984001;28;20037;-75
2022/09/01 00:59:01;;;;;;;10.45;6.88;;;;;;;24.25;100.00;100825.69;4998131;28;20366;-76
2022/09/01 01:01:47;;;;;;;11.32;7.20;;;;;;;23.73;100.00;100824.09;4983951;28;20093;-77
2022/09/01 01:04:32;;;;;;;11.02;7.47;;;;;;;23.57;100.00;100828.81;4997239;28;20467;-76
2022/09/01 01:07:21;;;;;;;12.73;7.13;;;;;;;23.92;100.00;100827.25;4998341;28;20026;-77
2022/09/01 01:10:10;;;;;;;17.95;7.68;;;;;;;23.87;100.00;100827.53;4998446;28;20111;-76
2022/09/01 01:12:59;;;;;;;15.95;7.10;;;;;;;24.17;100.00;100827.19;4997682;28;20034;-76
2022/09/01 01:15:45;;;;;;;10.20;6.93;;;;;;;24.29;100.00;100829.00;4984412;28;20077;-76
2022/09/01 01:18:31;;;;;;;13.75;7.53;;;;;;;24.13;100.00;100833.75;4997502;28;20045;-75
2022/09/01 01:24:37;;;;;;;13.10;7.93;;;;;;;24.26;100.00;100826.56;4997208;28;20041;-76
2022/09/01 01:27:23;;;;;;;9.85;6.90;;;;;;;24.37;100.00;100830.19;4997234;28;20513;-76
2022/09/01 01:30:11;;;;;;;14.70;7.43;;;;;;;23.52;100.00;100837.16;4997681;28;20026;-76
2022/09/01 01:32:57;;;;;;;10.68;7.05;;;;;;;23.77;100.00;100836.31;4996608;28;20026;-75
2022/09/01 01:35:43;;;;;;;14.10;7.80;;;;;;;23.63;100.00;100842.66;4996887;28;20166;-76
2022/09/01 01:38:30;;;;;;;11.68;7.32;;;;;;;23.60;100.00;100834.81;4983225;28;20343;-76
2022/09/01 01:41:18;;;;;;;10.68;7.43;;;;;;;23.65;100.00;100839.84;4997129;28;20109;-76
2022/09/01 01:44:04;;;;;;;12.80;7.65;;;;;;;23.75;100.00;100836.41;4983250;28;20116;-76
2022/09/01 01:46:51;;;;;;;13.00;7.68;;;;;;;23.46;100.00;100836.75;4998021;28;20019;-77
2022/09/01 01:49:42;;;;;;;10.65;7.45;;;;;;;23.07;100.00;100835.75;4985010;28;20126;-77
2022/09/01 01:52:28;;;;;;;10.80;7.20;;;;;;;23.25;100.00;100842.59;4985331;28;20042;-76
2022/09/01 01:55:18;;;;;;;12.00;8.10;;;;;;;23.02;100.00;100837.00;4999319;28;20026;-79
2022/09/01 01:58:04;;;;;;;11.63;7.57;;;;;;;23.07;100.00;100845.59;5001327;28;20038;-76
2022/09/01 02:00:52;;;;;;;12.55;7.47;;;;;;;23.48;100.00;100851.72;5000732;28;20022;-76
2022/09/01 02:03:39;;;;;;;12.40;7.57;;;;;;;22.84;100.00;100844.47;5002463;28;20034;-77
2022/09/01 02:06:25;;;;;;;13.75;7.68;;;;;;;23.05;100.00;100845.69;5012526;28;20022;-77
2022/09/01 02:09:14;;;;;;;9.77;7.20;;;;;;;23.00;100.00;100849.63;5013728;28;20086;-75
2022/09/01 02:12:00;;;;;;;10.82;7.72;;;;;;;23.52;100.00;100855.88;5008970;28;20474;-75
2022/09/01 02:14:47;;;;;;;11.60;7.43;;;;;;;23.31;100.00;100857.34;5010963;28;20096;-76
2022/09/01 02:17:33;;;;;;;12.88;7.63;;;;;;;23.04;100.00;100853.81;5006596;28;20112;-76
2022/09/01 02:20:20;;;;;;;10.57;7.22;;;;;;;23.58;100.00;100857.28;5007027;28;20054;-76
2022/09/01 02:23:10;;;;;;;10.50;7.03;;;;;;;23.25;100.00;100845.25;5010280;28;20062;-77
2022/09/01 02:26:01;;;;;;;13.30;7.10;;;;;;;23.06;100.00;100854.56;5015597;28;20056;-79
2022/09/01 02:28:48;;;;;;;10.05;7.22;;;;;;;23.07;100.00;100850.94;4996745;28;20109;-77
2022/09/01 02:31:39;;;;;;;10.73;7.15;;;;;;;23.51;100.00;100858.66;5001011;28;20030;-76
2022/09/01 02:34:27;;;;;;;10.00;7.10;;;;;;;23.18;100.00;100862.63;4999115;28;20022;-76
2022/09/01 02:37:14;;;;;;;12.88;7.13;;;;;;;22.43;100.00;100861.41;4997839;28;20031;-77
2022/09/01 02:40:00;;;;;;;9.20;7.07;;;;;;;22.27;100.00;100853.50;4997809;28;20616;-77
2022/09/01 02:42:46;;;;;;;11.85;6.80;;;;;;;22.63;100.00;100863.69;4997519;28;20096;-76
2022/09/01 02:45:33;;;;;;;10.32;7.30;;;;;;;22.59;100.00;100865.69;5002370;28;20046;-77
2022/09/01 02:48:23;;;;;;;13.93;7.28;;;;;;;22.74;100.00;100855.81;4999627;28;20026;-77
2022/09/01 02:51:13;;;;;;;11.43;6.82;;;;;;;22.63;100.00;100858.34;5005141;28;20026;-77
2022/09/01 02:53:59;;;;;;;12.02;7.05;;;;;;;22.77;100.00;100853.81;4997492;28;20030;-77
2022/09/01 02:56:47;;;;;;;10.93;6.55;;;;;;;22.96;100.00;100858.81;4996603;28;20117;-77
2022/09/01 02:59:33;;;;;;;11.35;6.55;;;;;;;22.77;100.00;100852.97;5012357;28;20026;-77
2022/09/01 03:02:19;;;;;;;10.05;6.78;;;;;;;23.10;100.00;100856.06;5006816;28;20037;-76
2022/09/01 03:05:06;;;;;;;10.57;7.15;;;;;;;22.73;100.00;100863.00;5013780;28;20026;-76
2022/09/01 03:07:56;;;;;;;12.65;7.88;;;;;;;22.57;100.00;100858.72;5013419;28;20026;-76
2022/09/01 03:10:45;;;;;;;12.52;6.30;;;;;;;22.90;100.00;100860.06;5011350;28;20383;-76
2022/09/01 03:13:31;;;;;;;11.75;6.70;;;;;;;22.96;100.00;100856.13;5014712;28;20046;-76
2022/09/01 03:16:17;;;;;;;11.02;7.10;;;;;;;22.82;100.00;100858.84;5011164;28;20057;-78
2022/09/01 03:19:07;;;;;;;12.90;7.00;;;;;;;23.14;100.00;100860.25;4993024;28;20026;-78
2022/09/01 03:21:58;;;;;;;11.07;6.50;;;;;;;23.42;100.00;100866.34;4997188;28;20049;-76
2022/09/01 03:24:44;;;;;;;9.07;6.97;;;;;;;22.75;100.00;100871.75;4996877;28;20030;-77
2022/09/01 03:27:30;;;;;;;11.52;7.18;;;;;;;22.78;100.00;100876.91;4996368;28;20475;-76
2022/09/01 03:30:16;;;;;;;13.00;7.60;;;;;;;23.10;100.00;100866.75;4995627;28;20034;-77
2022/09/01 03:33:02;;;;;;;9.35;7.45;;;;;;;22.80;100.00;100875.00;4996485;28;20030;-78
2022/09/01 03:35:48;;;;;;;10.45;7.05;;;;;;;22.98;100.00;100879.13;4995797;28;20034;-77
2022/09/01 03:38:34;;;;;;;10.13;7.38;;;;;;;22.83;100.00;100879.28;4981137;28;20030;-76
2022/09/01 03:41:23;;;;;;;12.05;7.93;;;;;;;22.75;100.00;100882.44;4995957;28;20414;-77
2022/09/01 03:44:10;;;;;;;13.15;7.60;;;;;;;22.66;100.00;100883.03;4982018;28;20050;-77
2022/09/01 03:46:57;;;;;;;11.32;7.45;;;;;;;22.59;100.00;100880.88;4996060;28;20087;-76
2022/09/01 03:49:44;;;;;;;11.25;7.55;;;;;;;22.75;100.00;100876.25;4994915;28;20454;-77
2022/09/01 03:52:30;;;;;;;12.63;7.32;;;;;;;22.86;100.00;100882.59;4995506;28;20034;-75
2022/09/01 03:55:22;;;;;;;9.93;7.60;;;;;;;22.58;100.00;100874.66;4994946;28;20022;-77
2022/09/01 03:58:10;;;;;;;14.13;8.48;;;;;;;22.75;100.00;100871.75;4995968;28;20045;-76
2022/09/01 04:01:00;;;;;;;10.35;7.90;;;;;;;22.96;100.00;100867.69;4995196;28;20041;-76
2022/09/01 04:03:47;;;;;;;14.85;7.97;;;;;;;22.67;100.00;100871.41;4995024;28;20501;-76
2022/09/01 04:06:35;;;;;;;13.10;8.55;;;;;;;22.26;100.00;100881.16;4999061;28;20041;-77
2022/09/01 04:09:21;;;;;;;13.50;7.95;;;;;;;22.55;100.00;100868.69;4998978;28;20038;-76
2022/09/01 04:12:12;;;;;;;14.05;8.00;;;;;;;22.50;100.00;100870.75;4984728;28;20053;-76
2022/09/01 04:14:58;;;;;;;14.93;8.20;;;;;;;22.13;100.00;100874.00;4998774;28;20497;-77
2022/09/01 04:18:08;;;;;;;12.73;8.07;;;;;;;22.23;100.00;100873.34;4998645;28;20023;-76
2022/09/01 04:20:56;;;;;;;16.83;8.00;;;;;;;22.43;100.00;100874.75;4999180;28;20076;-76
2022/09/01 04:23:43;;;;;;;10.52;7.43;;;;;;;22.28;100.00;100875.72;4984100;28;20030;-77
2022/09/01 04:26:30;;;;;;;14.50;8.02;;;;;;;22.31;100.00;100875.53;4998948;28;20030;-77
2022/09/01 04:29:18;;;;;;;11.50;8.07;;;;;;;22.38;100.00;100876.88;4998487;28;20169;-77
2022/09/01 04:32:11;;;;;;;15.35;8.40;;;;;;;22.29;100.00;100883.66;4998629;28;20104;-76
2022/09/01 04:34:57;;;;;;;12.93;8.43;;;;;;;22.12;100.00;100877.63;4998607;28;20026;-76
2022/09/01 04:37:42;;;;;;;10.15;8.57;;;;;;;22.15;100.00;100886.31;4984096;28;20363;-76
2022/09/01 04:40:28;;;;;;;11.75;8.20;;;;;;;21.84;100.00;100883.81;4998438;28;20053;-76
2022/09/01 04:43:14;;;;;;;15.13;8.18;;;;;;;21.58;100.00;100889.81;4998384;28;20058;-77
2022/09/01 04:46:02;;;;;;;13.23;9.43;;;;;;;21.59;100.00;100885.38;4998544;28;20026;-77
2022/09/01 04:48:52;;;;;;;11.15;8.52;;;;;;;21.69;100.00;100891.84;4998316;28;20038;-76
2022/09/01 04:51:43;;;;;;;14.52;8.32;;;;;;;21.80;100.00;100882.31;4998573;28;20113;-76
2022/09/01 04:54:31;;;;;;;13.25;8.73;;;;;;;21.51;100.00;100888.50;4997361;28;20486;-77
2022/09/01 04:57:17;;;;;;;13.50;8.93;;;;;;;21.84;100.00;100875.81;4998385;28;20030;-76
2022/09/01 05:00:03;;;;;;;10.68;8.30;;;;;;;21.95;100.00;100877.84;4998065;28;20061;-77
2022/09/01 05:03:02;;;;;;;15.13;8.50;;;;;;;22.09;100.00;100877.81;4997965;28;20026;-76
2022/09/01 05:05:47;;;;;;;12.52;8.45;;;;;;;22.29;100.00;100882.78;4984254;28;20021;-77
2022/09/01 05:08:34;;;;;;;14.05;8.73;;;;;;;22.15;100.00;100880.97;4997749;28;20057;-76
2022/09/01 05:11:19;;;;;;;14.07;8.55;;;;;;;22.23;100.00;100883.16;4998249;28;20415;-76
2022/09/01 05:14:05;;;;;;;12.52;8.48;;;;;;;22.30;100.00;100876.50;4997585;28;20033;-76
2022/09/01 05:16:59;;;;;;;10.70;8.18;;;;;;;22.44;100.00;100879.13;4997114;28;20077;-76
2022/09/01 05:19:47;;;;;;;18.50;8.90;;;;;;;22.48;100.00;100881.56;4997649;28;20045;-76
2022/09/01 05:22:34;;;;;;;14.75;8.48;;;;;;;22.87;100.00;100881.63;4997726;28;20033;-77
2022/09/01 05:25:22;;;;;;;11.25;8.60;;;;;;;22.18;100.00;100877.28;4997426;28;20034;-77
2022/09/01 05:28:08;;;;;;;15.90;8.60;;;;;;;22.68;100.00;100882.94;4997136;28;20168;-77
2022/09/01 05:30:54;;;;;;;13.77;8.45;;;;;;;22.64;100.00;100878.75;4997171;28;20033;-76
2022/09/01 05:33:44;;;;;;;10.63;8.52;;;;;;;22.52;100.00;100876.88;4996734;28;20352;-76
2022/09/01 05:36:32;;;;;;;14.63;8.35;;;;;;;22.47;100.00;100882.50;4997265;28;20427;-76
2022/09/01 05:39:19;;;;;;;12.13;8.35;;;;;;;22.85;100.00;100877.34;4996688;28;20030;-77
2022/09/01 05:42:08;;;;;;;12.55;8.00;;;;;;;22.89;100.00;100874.41;4996992;28;20030;-77
2022/09/01 05:44:54;;;;;;;13.48;8.40;;;;;;;23.01;100.00;100876.25;4996554;28;20042;-76
2022/09/01 05:47:40;;;;;;;13.65;9.93;;;;;;;23.02;100.00;100869.94;4998218;28;20057;-77
2022/09/01 05:50:27;;;;;;;11.43;8.90;;;;;;;23.13;100.00;100871.91;4996867;28;20083;-77
2022/09/01 05:53:16;;;;;;;15.75;11.00;;;;;;;23.16;100.00;100872.56;4997419;28;20097;-76
2022/09/01 05:56:06;;;;;;;14.30;9.40;;;;;;;22.76;100.00;100878.84;4996671;28;20037;-76
2022/09/01 05:58:53;;;;;;;13.00;8.60;;;;;;;22.65;100.00;100867.97;4996691;28;20026;-76
2022/09/01 06:01:40;;;;;;;10.60;8.30;;;;;;;22.92;100.00;100871.53;4997658;28;20103;-77
2022/09/01 06:04:26;;;;;;;14.80;8.57;;;;;;;22.96;100.00;100874.84;4982260;28;20420;-76
2022/09/01 06:07:13;;;;;;;12.52;8.90;;;;;;;23.52;100.00;100880.81;4996696;28;20037;-77
2022/09/01 06:09:59;;;;;;;16.63;9.55;;;;;;;23.51;100.00;100880.06;4995757;28;20030;-77
2022/09/01 06:12:46;;;;;;;12.95;8.57;;;;;;;23.86;100.00;100890.06;4996836;28;20037;-77
2022/09/01 06:15:35;;;;;;;11.75;8.30;;;;;;;23.61;100.00;100883.81;4995420;28;20049;-77
2022/09/01 06:18:22;;;;;;;14.15;8.88;;;;;;;23.38;100.00;100888.91;4996387;28;20030;-78
2022/09/01 06:21:13;;;;;;;13.13;8.13;;;;;;;23.71;100.00;100888.44;4995329;28;20066;-76
2022/09/01 06:23:59;;;;;;;11.43;8.05;;;;;;;23.45;100.00;100897.38;4996025;28;20053;-76
2022/09/01 06:26:45;;;;;;;12.95;8.45;;;;;;;23.96;100.00;100890.31;4982200;28;20022;-76
2022/09/01 06:29:31;;;;;;;10.63;7.30;;;;;;;23.72;100.00;100892.84;4996720;28;20081;-77
2022/09/01 06:32:18;;;;;;;10.18;7.72;;;;;;;23.61;100.00;100889.16;4981707;28;20140;-76
2022/09/01 06:35:07;;;;;;;10.85;7.18;;;;;;;24.24;100.00;100896.31;4995195;28;20038;-77
2022/09/01 06:37:53;;;;;;;11.82;7.68;;;;;;;24.30;100.00;100900.38;4995580;28;20371;-77
2022/09/01 06:40:40;;;;;;;12.95;7.38;;;;;;;24.40;100.00;100904.09;4996615;28;20340;-77
2022/09/01 06:43:29;;;;;;;12.73;7.60;;;;;;;24.39;100.00;100905.91;4995907;28;20046;-77
2022/09/01 06:46:18;;;;;;;10.82;7.50;;;;;;;24.66;100.00;100897.72;4995903;28;20037;-77
2022/09/01 06:49:04;;;;;;;13.48;7.78;;;;;;;24.66;100.00;100901.28;4995839;28;20109;-77
2022/09/01 06:51:51;;;;;;;10.57;7.43;;;;;;;24.83;100.00;100905.44;4995281;28;20023;-76
2022/09/01 06:54:42;;;;;;;15.48;8.48;;;;;;;25.08;100.00;100906.16;4995803;28;20057;-77
2022/09/01 06:57:46;;;;;;;11.40;7.20;;;;;;;24.72;100.00;100902.66;5015125;28;20391;-77
2022/09/01 07:00:41;;;;;;;13.73;7.60;;;;;;;24.96;100.00;100912.47;5014932;28;20034;-80
2022/09/01 07:03:27;;;;;;;9.50;7.00;;;;;;;24.98;100.00;100910.50;5012975;28;20037;-76
2022/09/01 07:06:14;;;;;;;10.48;7.10;;;;;;;25.02;100.00;100924.53;5013658;28;20498;-76
2022/09/01 07:09:00;;;;;;;8.07;7.13;;;;;;;25.04;100.00;100914.56;5011351;28;20026;-77
2022/09/01 07:11:46;;;;;;;11.38;7.20;;;;;;;24.83;100.00;100906.25;5014249;28;20106;-78
2022/09/01 07:14:32;;;;;;;11.60;6.78;;;;;;;24.91;100.00;100903.03;5038460;28;20371;-78
2022/09/01 07:17:19;;;;;;;14.27;7.72;;;;;;;24.53;100.00;100910.28;5038743;28;20053;-77
2022/09/01 07:20:05;;;;;;;10.60;7.70;;;;;;;24.81;100.00;100904.66;5037057;28;20025;-77
2022/09/01 07:23:00;;;;;;;13.82;7.72;;;;;;;24.91;100.00;100900.34;5036715;28;20358;-76
2022/09/01 07:25:48;;;;;;;10.27;7.60;;;;;;;25.31;100.00;100908.03;5051384;28;20068;-76
2022/09/01 07:28:35;;;;;;;9.70;7.32;;;;;;;25.81;100.00;100910.41;5052397;28;20100;-77
2022/09/01 07:31:35;;;;;;;10.57;7.85;;;;;;;25.63;100.00;100900.22;5037659;28;20370;-76
2022/09/01 07:34:21;;;;;;;11.32;7.88;;;;;;;25.73;100.00;100896.72;5050847;28;20029;-76
2022/09/01 07:37:07;;;;;;;9.77;7.35;;;;;;;25.49;100.00;100903.97;5051035;28;20021;-76
2022/09/01 07:39:54;;;;;;;11.45;7.05;;;;;;;25.68;100.00;100903.41;5051197;28;20361;-76
2022/09/01 07:42:40;;;;;;;16.70;7.88;;;;;;;26.03;100.00;100905.09;5051523;28;20048;-77
2022/09/01 07:45:26;;;;;;;10.57;7.18;;;;;;;26.08;100.00;100899.38;5049968;28;20033;-77
2022/09/01 07:48:13;;;;;;;11.40;7.60;;;;;;;26.41;100.00;100897.53;5051073;28;20103;-78
2022/09/01 07:50:59;;;;;;;11.65;8.02;;;;;;;26.28;100.00;100890.59;5051206;28;20025;-76
2022/09/01 07:53:49;;;;;;;11.52;7.72;;;;;;;26.40;100.00;100890.44;5049779;28;20119;-77
2022/09/01 07:56:35;;;;;;;13.93;7.57;;;;;;;26.30;100.00;100878.75;5050928;28;20076;-77
2022/09/01 07:59:21;;;;;;;16.25;7.60;;;;;;;26.99;100.00;100888.31;5050868;28;20091;-76
2022/09/01 08:02:07;;;;;;;12.70;7.50;;;;;;;27.02;100.00;100883.56;5051149;28;20029;-78
2022/09/01 08:04:54;;;;;;;10.70;6.80;;;;;;;27.40;100.00;100894.69;5050392;28;20037;-76
2022/09/01 08:07:40;;;;;;;16.15;11.02;;;;;;;27.64;100.00;100890.91;5046640;28;20030;-76
2022/09/01 08:10:25;;;;;;;10.63;6.82;;;;;;;27.20;100.00;100884.72;5037411;28;20482;-77
2022/09/01 08:13:11;;;;;;;14.05;6.55;;;;;;;27.55;100.00;100894.38;5037433;28;20025;-75
2022/09/01 08:15:57;;;;;;;9.32;6.80;;;;;;;27.74;100.00;100887.28;5036634;28;20057;-77
2022/09/01 08:18:43;;;;;;;10.70;6.82;;;;;;;27.47;100.00;100880.72;5037482;28;20029;-76
2022/09/01 08:21:29;;;;;;;13.60;6.85;;;;;;;28.11;100.00;100884.97;5036598;28;20096;-78
2022/09/01 08:24:15;;;;;;;10.65;7.13;;;;;;;28.20;100.00;100876.94;5021750;28;20033;-76
2022/09/01 08:27:01;;;;;;;13.02;7.50;;;;;;;28.45;100.00;100871.09;5036881;28;20359;-77
2022/09/01 08:29:47;;;;;;;15.80;7.57;;;;;;;28.97;100.00;100869.97;5022036;28;20026;-77
2022/09/01 08:32:34;;;;;;;10.45;7.28;;;;;;;28.94;98.66;100870.25;5037070;28;20034;-77
2022/09/01 08:35:19;;;;;;;11.70;7.80;;;;;;;29.28;94.61;100863.47;5022368;28;20041;-77
2022/09/01 08:38:06;;;;;;;11.85;10.00;;;;;;;28.97;94.25;100869.97;5036808;28;20112;-75
2022/09/01 08:40:56;;;;;;;16.70;12.38;;;;;;;29.34;90.49;100863.78;5037485;28;20443;-76
2022/09/01 08:44:20;;;;;;;15.63;11.50;;;;;;;28.86;95.26;100862.00;5036199;28;20116;-77
2022/09/01 08:47:09;;;;;;;18.80;12.07;;;;;;;29.08;91.95;100868.03;5035660;28;20029;-76
2022/09/01 08:49:56;;;;;;;15.23;12.05;;;;;;;28.63;94.85;100856.00;5035863;28;20040;-77
2022/09/01 08:52:51;;;;;;;17.75;13.00;;;;;;;29.10;93.87;100857.09;5036093;28;20072;-77
2022/09/01 08:55:44;;;;;;;20.27;16.42;;;;;;;29.22;91.51;100856.81;5034859;28;20132;-76
2022/09/01 08:58:30;;;;;;;18.65;15.15;;;;;;;29.24;93.17;100854.81;5036375;28;20493;-76
2022/09/01 09:01:28;;;;;;;15.20;12.40;;;;;;;29.67;88.26;100852.53;5020998;28;20025;-78
2022/09/01 09:04:25;;;;;;;18.05;13.02;;;;;;;29.81;85.86;100848.53;5035483;28;20043;-77
2022/09/01 09:07:57;;;;;;;19.73;15.32;;;;;;;29.50;88.16;100855.94;5034737;28;20060;-77
2022/09/01 09:10:58;;;;;;;20.63;15.55;;;;;;;29.59;88.12;100843.44;4962561;28;20077;-79
2022/09/01 09:14:06;;;;;;;21.15;16.27;;;;;;;29.37;89.49;100841.88;5021308;28;20405;-76
2022/09/01 09:16:53;;;;;;;21.15;16.45;;;;;;;29.69;87.23;100838.91;5036159;28;20037;-76
2022/09/01 09:19:41;;;;;;;13.48;11.38;;;;;;;29.49;85.83;100823.69;5034967;28;20484;-77
2022/09/01 09:22:27;;;;;;;22.90;16.58;;;;;;;29.57;85.68;100838.19;5021415;28;20025;-77
2022/09/01 09:25:16;;;;;;;25.77;21.10;;;;;;;29.52;85.30;100835.03;5035808;28;20040;-77
2022/09/01 09:28:02;;;;;;;21.08;18.75;;;;;;;29.63;84.64;100834.94;5035999;28;20037;-77
2022/09/01 09:30:48;;;;;;;73.00;49.20;;;;;;;29.63;83.70;100825.97;5035843;28;20032;-76
2022/09/01 09:33:37;;;;;;;24.17;17.40;;;;;;;30.16;81.04;100827.97;5035281;28;20033;-77
2022/09/01 09:36:31;;;;;;;18.70;12.38;;;;;;;29.78;81.89;100824.50;5022585;28;20061;-77
2022/09/01 09:39:17;;;;;;;14.68;11.60;;;;;;;30.41;79.27;100813.75;5038748;28;20092;-76
2022/09/01 09:42:08;;;;;;;9.18;6.55;;;;;;;29.94;87.10;100813.94;5042468;28;20030;-77
2022/09/01 09:44:55;;;;;;;8.35;5.82;;;;;;;29.74;89.69;100821.22;5022523;28;20022;-76
2022/09/01 09:47:47;;;;;;;8.05;6.03;;;;;;;29.14;93.47;100818.91;5035360;28;20089;-78
2022/09/01 09:50:37;;;;;;;13.77;7.95;;;;;;;29.90;88.98;100805.25;5035603;28;20365;-80
2022/09/01 09:53:25;;;;;;;10.70;6.10;;;;;;;30.00;87.33;100808.78;5022227;28;20414;-77
2022/09/01 09:56:21;;;;;;;6.70;5.70;;;;;;;29.87;86.77;100810.97;5035190;28;20058;-77
2022/09/01 09:59:18;;;;;;;10.73;8.35;;;;;;;29.48;85.60;100813.88;5043496;28;20076;-76
2022/09/01 10:02:17;;;;;;;14.82;6.90;;;;;;;29.63;89.32;100798.94;5040362;28;20025;-77
2022/09/01 10:05:21;;;;;;;8.02;5.80;;;;;;;30.30;86.64;100792.31;5035025;28;20051;-76
2022/09/01 10:08:36;;;;;;;11.70;7.43;;;;;;;30.46;81.67;100791.66;5035259;28;20033;-77
2022/09/01 10:11:50;;;;;;;12.85;8.07;;;;;;;30.38;80.86;100781.59;5034514;28;20025;-77
2022/09/01 10:14:49;;;;;;;9.27;6.70;;;;;;;30.21;83.12;100785.09;5034198;28;20132;-77
2022/09/01 10:17:41;;;;;;;24.23;19.35;;;;;;;29.38;83.47;100784.22;5034909;28;20029;-77
2022/09/01 10:20:27;;;;;;;24.35;19.27;;;;;;;30.19;80.68;100781.72;5035711;28;20029;-77
2022/09/01 10:23:13;;;;;;;26.15;22.55;;;;;;;30.43;77.99;100775.72;5035145;28;20026;-77
2022/09/01 10:26:14;;;;;;;12.23;7.10;;;;;;;29.91;81.29;100785.38;5034655;28;20386;-77
2022/09/01 10:29:09;;;;;;;10.27;6.00;;;;;;;29.89;82.96;100781.09;5033845;28;20021;-77
2022/09/01 10:31:55;;;;;;;8.32;5.13;;;;;;;30.24;80.13;100773.13;5034513;28;20033;-77
2022/09/01 10:34:42;;;;;;;14.30;7.55;;;;;;;30.27;79.32;100772.84;5034424;28;20057;-76
2022/09/01 10:37:29;;;;;;;9.18;6.70;;;;;;;30.45;79.30;100771.00;5034070;28;20037;-76
2022/09/01 10:40:18;;;;;;;9.07;5.13;;;;;;;30.43;79.19;100773.03;5033994;28;20037;-76
2022/09/01 10:43:33;;;;;;;32.47;27.98;;;;;;;30.68;75.14;100773.16;5034866;28;20361;-77
2022/09/01 10:46:23;;;;;;;36.00;30.45;;;;;;;30.56;75.53;100760.84;5034257;28;20380;-77
2022/09/01 10:49:17;;;;;;;39.33;32.90;;;;;;;30.44;74.63;100763.91;5018970;28;20029;-77
2022/09/01 10:52:03;;;;;;;41.83;36.53;;;;;;;30.41;73.65;100762.34;5034545;28;20056;-77
2022/09/01 10:54:54;;;;;;;26.75;21.75;;;;;;;29.94;76.69;100752.63;5033496;28;20021;-76
2022/09/01 10:57:53;;;;;;;31.40;23.92;;;;;;;30.25;78.25;100754.06;5032829;28;20038;-78
2022/09/01 11:00:39;;;;;;;20.48;15.65;;;;;;;30.56;72.16;100752.72;5033015;28;20033;-78
2022/09/01 11:03:36;;;;;;;11.98;9.25;;;;;;;30.09;74.13;100747.59;5032971;28;20053;-78
2022/09/01 11:06:33;;;;;;;9.60;6.95;;;;;;;30.31;77.09;100742.66;5035041;28;20036;-77
2022/09/01 11:09:31;;;;;;;8.73;5.53;;;;;;;30.82;72.19;100744.72;5020040;28;20021;-76
2022/09/01 11:12:46;;;;;;;12.07;5.25;;;;;;;31.10;69.57;100741.75;5034768;28;20029;-77
2022/09/01 11:15:36;;;;;;;9.93;5.20;;;;;;;30.92;69.87;100738.22;5032763;28;20026;-76
2022/09/01 11:18:29;;;;;;;9.10;5.85;;;;;;;30.85;68.46;100741.69;5035078;28;20210;-77
2022/09/01 11:21:33;;;;;;;11.82;5.68;;;;;;;30.58;68.63;100733.66;5021025;28;20091;-76
2022/09/01 11:24:37;;;;;;;11.35;5.53;;;;;;;30.95;66.21;100726.25;5038202;28;20029;-79
2022/09/01 11:27:49;;;;;;;14.30;5.88;;;;;;;30.55;67.43;100720.41;5036601;28;20117;-77
2022/09/01 11:30:40;;;;;;;12.38;8.93;;;;;;;31.05;67.42;100725.13;5020110;28;20034;-78
2022/09/01 11:33:54;;;;;;;8.98;6.20;;;;;;;30.80;66.04;100720.53;5035014;28;20030;-76
2022/09/01 11:36:49;;;;;;;9.60;5.13;;;;;;;31.54;65.07;100710.09;5023718;28;20040;-79
2022/09/01 11:39:42;;;;;;;10.23;5.10;;;;;;;31.20;68.29;100709.16;5022112;28;20411;-77
2022/09/01 11:42:42;;;;;;;10.40;6.05;;;;;;;31.54;63.66;100704.66;5033137;28;20029;-77
2022/09/01 11:45:35;;;;;;;14.32;5.53;;;;;;;32.11;62.64;100706.69;5023349;28;20446;-77
2022/09/01 11:48:21;;;;;;;8.98;5.57;;;;;;;32.35;62.72;100708.63;5024212;28;20040;-77
2022/09/01 11:51:07;;;;;;;7.18;5.45;;;;;;;32.29;60.03;100703.81;5036565;28;20025;-76
2022/09/01 11:53:59;;;;;;;7.55;5.28;;;;;;;32.42;59.64;100705.06;5024141;28;20035;-78
2022/09/01 11:56:45;;;;;;;15.05;5.55;;;;;;;32.28;58.79;100708.41;5037410;28;20052;-77
2022/09/01 11:59:33;;;;;;;10.82;5.78;;;;;;;32.34;58.63;100691.50;5023212;28;20032;-77
2022/09/01 12:02:21;;;;;;;9.23;5.53;;;;;;;32.49;59.01;100688.97;5037605;28;20040;-77
2022/09/01 12:05:26;;;;;;;8.88;5.35;;;;;;;32.03;59.27;100689.53;5023655;28;20029;-78
2022/09/01 12:08:14;;;;;;;7.93;5.75;;;;;;;31.73;62.71;100690.88;5036169;28;20119;-78
2022/09/01 12:11:11;;;;;;;7.95;5.53;;;;;;;32.30;58.46;100683.88;5037025;28;20040;-77
2022/09/01 12:13:59;;;;;;;8.63;5.18;;;;;;;32.03;59.43;100676.81;5023193;28;20030;-78
2022/09/01 12:16:56;;;;;;;8.63;5.45;;;;;;;32.07;57.16;100686.34;5038230;28;20072;-77
2022/09/01 12:19:42;;;;;;;6.65;5.95;;;;;;;31.95;59.10;100682.22;5023182;28;20358;-77
2022/09/01 12:22:28;;;;;;;8.25;5.70;;;;;;;32.23;57.34;100682.81;5035603;28;20439;-77
2022/09/01 12:25:26;;;;;;;8.93;5.47;;;;;;;32.27;57.33;100668.75;5037450;28;20097;-77
2022/09/01 12:28:13;;;;;;;11.52;5.45;;;;;;;32.31;55.89;100677.44;5040249;28;20033;-77
2022/09/01 12:31:03;;;;;;;6.18;5.13;;;;;;;32.42;54.72;100666.28;5027013;28;20025;-78
2022/09/01 12:33:50;;;;;;;7.40;4.72;;;;;;;32.23;55.79;100664.69;5025477;28;20446;-78
2022/09/01 12:36:36;;;;;;;9.63;5.22;;;;;;;32.37;56.54;100674.91;5039751;28;20070;-77
2022/09/01 12:39:23;;;;;;;13.73;5.43;;;;;;;32.52;58.80;100669.66;5036770;28;20041;-76
2022/09/01 12:42:31;;;;;;;10.32;5.40;;;;;;;32.23;58.08;100661.97;5038240;28;20108;-79
2022/09/01 12:45:36;;;;;;;8.50;4.90;;;;;;;32.50;55.91;100658.13;5036484;28;20442;-77
2022/09/01 12:48:28;;;;;;;11.95;5.07;;;;;;;32.83;54.88;100655.28;5036466;28;20029;-77
2022/09/01 12:51:24;;;;;;;9.02;5.68;;;;;;;32.74;55.88;100660.88;5036574;28;20068;-77
2022/09/01 12:54:10;;;;;;;7.20;5.63;;;;;;;32.62;55.71;100656.78;5035949;28;20096;-77
2022/09/01 12:56:57;;;;;;;12.32;4.68;;;;;;;32.47;55.58;100648.47;5036255;28;20045;-77